Portada
METAR-TAF:

METAR-TAF

Aeropuertos :

Aeropuerto de Faro

Faro, Portugal

latitud: 37-01N, longitud: 007-58W, altitud: 7 m

Observación

El informe se hizo hace 42 minutos, a las 13:00 UTC
Viento 11 kt del este
Temperatura 16°C
Humedad 51%
Presión 1031 hPa
Visibilidad 10 km o más
sin nubes por debajo de 1500 m y sin presencia de cumulonimbus.

METAR: LPFR 031300Z 09011KT CAVOK 16/06 Q1031

Hora: 13:42 (13:42 UTC)

Pronóstico

El informe se hizo hace 2 horas y 42 minutos, a las 11:00 UTC
Pronóstico válido del 03 a las 12 UTC al 04 a las 12 UTC
Viento 10 kt del este
Visibilidad 10 km o más
sin nubes por debajo de 1500 m y sin presencia de cumulonimbus.
Evolucionando progresivamente
del 03 a las 19 UTC al 03 a las 21 UTC
Viento 7 kt del norte-noreste
Evolucionando progresivamente
del 04 a las 10 UTC al 04 a las 12 UTC
Viento 10 kt del este

TAF: LPFR 031100Z 0312/0412 10010KT CAVOK BECMG 0319/0321 03007KT BECMG 0410/0412 10010KT

Observaciones y pronósticos meteorológicos de más de 4000 aeropuertos (mensajes METAR y TAF).

Los puntos amarillos y rojos representan las estaciones disponibles.

Ponga el ratón en el punto deseado para ver el nombre de la estación.

Haga clic para ver las observaciones y los pronósticos meteorológicos.

Para cambiar el mapa : haga clic en los botones verdes con una cruz de color negro para hacer un zoom, en el botón verde con un guión para alejar o en las flechas verdes para mapas adyacentes.


METAR-TAF: